KSEP

Details ICAO KSEP
Name CLARK FLD MUNI
Region United States
Timezone America/Chicago (UTC-6.0)
Plans Departing 7
Arriving 11
Stats Elevation 1,321 ft / 403 m (AMSL)
Location 32.215393° -98.179132°
Runways 2
Magnetic Variation 4.106° E
Sunrise 2017-12-16 13:28:30 UTC / 2017-12-16 07:28:30 Local
Sunset 2017-12-16 23:31:13 UTC / 2017-12-16 17:31:13 Local
Advertisement - Login to hide

Runways

ID Width Length Bearing (true) Bearing (mag) Surface Threshold Offset Overrun Length
03 50 ft / 15 m 2,505 ft / 763 m 39.12° 35.01° Asphalt 0 ft / 0 m 0 ft / 0 m
14 75 ft / 23 m 4,207 ft / 1,282 m 149.31° 145.20° Asphalt 0 ft / 0 m 0 ft / 0 m
21 50 ft / 15 m 2,505 ft / 763 m 219.12° 215.01° Asphalt 0 ft / 0 m 0 ft / 0 m
32 75 ft / 23 m 4,207 ft / 1,282 m 329.31° 325.20° Asphalt 0 ft / 0 m 0 ft / 0 m

Map

Weather


0- 5 10 15 20 25 30 35+ Temperature / ° C

Clouds and Precipitation
Forecast for 2017-12-16 18:00 UTC. Updated 2 hours ago

Ground ~20,000 ft ~40,000 ft Winds

METAR

KSEP 161635Z AUTO 17005KT 10SM CLR 12/00 A3012 RMK AO2 T01161005

TAF

Not found

Frequencies

Recorded 118.07 MHz AWOS 3
Unicom 122.80 MHz CTAF/UNICOM
Warning: Do not use this data for real-world aviation or navigation. No guarantee of current accuracy is given.